createdAt,value
2019-02-28T03:08:07.249Z,30.7
2019-02-28T03:08:49.532Z,30.5
2019-02-28T03:09:43.280Z,30.3
2019-02-28T03:10:29.637Z,30.2
2019-02-28T03:11:18.372Z,30.1
2019-02-28T03:12:09.557Z,29.9
2019-02-28T03:12:58.133Z,29.4
2019-02-28T03:13:54.389Z,29.3
2019-02-28T03:14:38.106Z,30.3
2019-02-28T03:15:36.712Z,30.7
2019-02-28T03:16:19.502Z,31
2019-02-28T03:17:18.383Z,31.3
2019-02-28T03:17:59.437Z,31.5
2019-02-28T03:18:48.609Z,31.7
2019-02-28T03:19:44.717Z,31.9
2019-02-28T03:20:29.562Z,32.2
2019-02-28T03:21:24.770Z,32.4
2019-02-28T03:22:09.231Z,32.6
2019-02-28T03:23:05.081Z,31.9
2019-02-28T03:23:50.178Z,31.6
2019-02-28T03:24:39.347Z,31.4
2019-02-28T03:25:37.717Z,31.2
2019-02-28T03:26:20.083Z,30.9
2019-02-28T03:27:09.391Z,30.8
2019-02-28T03:28:05.858Z,30.6
2019-02-28T03:28:49.256Z,30.4
2019-02-28T03:29:48.328Z,30.2
2019-02-28T03:30:43.749Z,30.1
2019-02-28T03:31:25.744Z,29.9
2019-02-28T03:32:10.621Z,29.8
2019-02-28T03:32:59.694Z,29
2019-02-28T03:33:51.682Z,29.5
2019-02-28T03:34:41.323Z,30.3
2019-02-28T03:35:48.623Z,30.8
2019-02-28T03:36:26.513Z,31.1
2019-02-28T03:37:10.477Z,31.3
2019-02-28T03:38:01.200Z,31.5
2019-02-28T03:38:59.460Z,31.8
2019-02-28T03:39:39.574Z,32
2019-02-28T03:40:31.247Z,32.2
2019-02-28T03:41:27.663Z,32.4
2019-02-28T03:42:11.085Z,32.6
2019-02-28T03:43:10.502Z,31.9
2019-02-28T03:43:53.378Z,31.6
2019-02-28T03:44:41.173Z,31.4
2019-02-28T03:45:41.340Z,31.1
2019-02-28T03:46:21.598Z,30.9
2019-02-28T03:47:10.572Z,30.7
2019-02-28T03:48:09.358Z,30.5
2019-02-28T03:48:50.661Z,30.3
2019-02-28T03:49:50.231Z,30.2
2019-02-28T03:50:32.921Z,30
2019-02-28T03:51:22.700Z,29.9
2019-02-28T03:52:16.719Z,29.6
2019-02-28T03:53:01.839Z,29
2019-02-28T03:54:00.154Z,29.8
2019-02-28T03:54:41.476Z,30.6
2019-02-28T03:55:39.701Z,30.8
2019-02-28T03:56:25.189Z,31.1
2019-02-28T03:57:12.368Z,31.4
2019-02-28T03:58:10.657Z,31.6
2019-02-28T03:58:52.764Z,31.8
2019-02-28T03:59:41.996Z,31.6
2019-02-28T04:00:41.212Z,30.6
2019-02-28T04:01:22.521Z,28.5
2019-02-28T04:02:12.359Z,26.9
2019-02-28T04:03:08.625Z,25.9
2019-02-28T04:03:52.266Z,25.7
2019-02-28T04:04:51.876Z,26.3
2019-02-28T04:05:38.086Z,28
2019-02-28T04:06:22.578Z,29
2019-02-28T04:07:20.548Z,29.8
2019-02-28T04:08:04.017Z,30.6
2019-02-28T04:08:52.903Z,31
2019-02-28T04:09:50.703Z,31.4
2019-02-28T04:10:32.802Z,31.8
2019-02-28T04:11:30.460Z,32
2019-02-28T04:12:18.805Z,32.4
2019-02-28T04:13:03.219Z,32.6
2019-02-28T04:14:01.506Z,32.7
2019-02-28T04:14:43.422Z,31.9
2019-02-28T04:15:33.469Z,31.8
2019-02-28T04:16:22.569Z,31.5
2019-02-28T04:17:13.470Z,31.3
2019-02-28T04:18:11.548Z,31.1
2019-02-28T04:18:55.783Z,30.8
2019-02-28T04:19:43.083Z,30.6
2019-02-28T04:20:42.151Z,30.4
2019-02-28T04:21:24.280Z,30.3
2019-02-28T04:22:13.023Z,30.1
2019-02-28T04:23:09.716Z,29.8
2019-02-28T04:23:53.956Z,29.5
2019-02-28T04:24:48.721Z,30.3
2019-02-28T04:25:34.283Z,30.9
2019-02-28T04:26:24.682Z,31.1
2019-02-28T04:27:17.627Z,31.4
2019-02-28T04:28:04.031Z,31.7
2019-02-28T04:29:02.453Z,31.9
2019-02-28T04:29:44.340Z,32.1
2019-02-28T04:30:35.308Z,32.3
2019-02-28T04:31:29.452Z,32.6
2019-02-28T04:32:14.482Z,31.9
2019-02-28T04:33:10.409Z,31.7
2019-02-28T04:33:55.135Z,31.4
2019-02-28T04:34:51.367Z,31.2
2019-02-28T04:35:35.395Z,30.9
2019-02-28T04:36:25.121Z,30.7
2019-02-28T04:37:19.846Z,30.5
2019-02-28T04:38:05.417Z,30.3
2019-02-28T04:38:58.379Z,30.2
2019-02-28T04:39:44.119Z,30
2019-02-28T04:40:37.248Z,29.4
2019-02-28T04:41:24.486Z,29.6
2019-02-28T04:42:15.872Z,30.4
2019-02-28T04:43:10.045Z,30.9
2019-02-28T04:43:54.138Z,31.1
2019-02-28T04:44:45.805Z,31.4
2019-02-28T04:45:35.309Z,31.6
2019-02-28T04:46:28.253Z,31.8
2019-02-28T04:47:16.154Z,32.1
2019-02-28T04:48:04.133Z,32.3
2019-02-28T04:48:57.688Z,32.4
2019-02-28T04:49:45.140Z,32.3
2019-02-28T04:50:41.845Z,31.8
2019-02-28T04:51:24.623Z,31.4
2019-02-28T04:52:19.644Z,31.2
2019-02-28T04:53:05.871Z,31
2019-02-28T04:54:00.328Z,30.8
2019-02-28T04:54:45.613Z,30.6
2019-02-28T04:55:43.328Z,30.4
2019-02-28T04:56:25.435Z,30.2
2019-02-28T04:57:23.098Z,30.1
2019-02-28T04:58:06.149Z,29.6
2019-02-28T04:59:01.891Z,29.2
2019-02-28T04:59:46.535Z,30.1
2019-02-28T05:00:40.565Z,30.7
2019-02-28T05:01:26.629Z,31.1
2019-02-28T05:02:22.195Z,31.3
2019-02-28T05:03:05.912Z,31.5
2019-02-28T05:04:04.935Z,31.7
2019-02-28T05:04:46.078Z,31.9
2019-02-28T05:05:35.897Z,32.1
2019-02-28T05:06:31.413Z,32.3
2019-02-28T05:07:16.515Z,32.5
2019-02-28T05:08:13.075Z,32.1
2019-02-28T05:08:56.747Z,31.7
2019-02-28T05:09:52.675Z,31.4
2019-02-28T05:10:36.717Z,31.2
2019-02-28T05:11:35.087Z,31
2019-02-28T05:12:16.535Z,30.7
2019-02-28T05:13:06.905Z,30.6
2019-02-28T05:13:59.094Z,30.4
2019-02-28T05:14:46.549Z,30.2
2019-02-28T05:15:45.769Z,30.1
2019-02-28T05:16:27.449Z,29.3
2019-02-28T05:17:19.283Z,29.6
2019-02-28T05:18:06.683Z,30.5
2019-02-28T05:19:04.773Z,30.9
2019-02-28T05:19:48.144Z,31.3
2019-02-28T05:20:46.605Z,31.4
2019-02-28T05:21:29.606Z,31.7
2019-02-28T05:22:17.483Z,31.9
2019-02-28T05:23:11.962Z,32.1
2019-02-28T05:23:58.186Z,32.4
2019-02-28T05:24:51.926Z,32.5
2019-02-28T05:25:38.286Z,32.3
2019-02-28T05:26:34.194Z,31.8
2019-02-28T05:27:17.604Z,31.5
2019-02-28T05:28:11.701Z,31.3
2019-02-28T05:28:57.434Z,31
2019-02-28T05:29:52.637Z,30.8
2019-02-28T05:30:37.916Z,30.6
2019-02-28T05:31:34.236Z,30.4
2019-02-28T05:32:18.188Z,30.3
2019-02-28T05:33:11.973Z,30.1
2019-02-28T05:33:58.620Z,29.4
2019-02-28T05:34:55.941Z,29.7
2019-02-28T05:35:38.204Z,30.7
2019-02-28T05:36:28.814Z,31.1
2019-02-28T05:37:23.092Z,31.3
2019-02-28T05:38:09.239Z,31.6
2019-02-28T05:39:05.748Z,31.8
2019-02-28T05:39:51.081Z,32
2019-02-28T05:40:45.318Z,32.2
2019-02-28T05:41:29.161Z,32.4
2019-02-28T05:42:24.633Z,32.6
2019-02-28T05:43:09.578Z,31.9
2019-02-28T05:43:58.729Z,31.6
2019-02-28T05:44:50.745Z,31.4
2019-02-28T05:45:39.618Z,31.2
2019-02-28T05:46:34.716Z,30.9
2019-02-28T05:47:18.510Z,30.7
2019-02-28T05:48:12.853Z,30.6
2019-02-28T05:48:59.382Z,30.4
2019-02-28T05:49:50.973Z,30.1
2019-02-28T05:50:39.708Z,29.8
2019-02-28T05:51:34.214Z,29.4
2019-02-28T05:52:19.900Z,30.4
2019-02-28T05:53:17.875Z,31
2019-02-28T05:54:00.287Z,31.4
2019-02-28T05:54:57.684Z,31.6
2019-02-28T05:55:41.575Z,31.8
2019-02-28T05:56:35.600Z,32
2019-02-28T05:57:20.427Z,32.2
2019-02-28T05:58:09.214Z,32.4
2019-02-28T05:59:01.885Z,32.6
2019-02-28T05:59:50.349Z,31.6
2019-02-28T06:00:47.601Z,30.4
2019-02-28T06:01:29.685Z,28.1
2019-02-28T06:02:29.762Z,26.8
2019-02-28T06:03:12.633Z,24.8
2019-02-28T06:05:57.697Z,25.8
2019-02-28T06:06:48.054Z,27.6
2019-02-28T06:07:39.327Z,29.1
2019-02-28T06:08:28.427Z,29.9
2019-02-28T06:09:23.843Z,30.6
2019-02-28T06:10:08.959Z,31.3
2019-02-28T06:11:07.387Z,31.6
2019-02-28T06:11:49.686Z,32
2019-02-28T06:12:45.680Z,32.3
2019-02-28T06:13:29.255Z,32.6
2019-02-28T06:14:19.109Z,32.8
2019-02-28T06:15:12.357Z,32.1
2019-02-28T06:15:58.492Z,31.8
2019-02-28T06:16:56.480Z,31.6
2019-02-28T06:17:39.536Z,31.3
2019-02-28T06:18:39.708Z,31.1
2019-02-28T06:19:20.565Z,30.8
2019-02-28T06:20:09.767Z,30.6
2019-02-28T06:21:02.225Z,30.4
2019-02-28T06:21:49.249Z,30.3
2019-02-28T06:22:45.584Z,29.6
2019-02-28T06:23:29.459Z,30.1
2019-02-28T06:24:23.239Z,30.8
2019-02-28T06:25:10.275Z,31.2
2019-02-28T06:26:08.107Z,31.5
2019-02-28T06:26:50.717Z,31.9
2019-02-28T06:27:58.672Z,32.1
2019-02-28T06:28:37.527Z,32.4
2019-02-28T06:29:20.951Z,32.6
2019-02-28T06:30:14.112Z,32
2019-02-28T06:31:02.478Z,31.8
2019-02-28T06:31:56.353Z,31.5
2019-02-28T06:32:40.129Z,31.2
2019-02-28T06:33:37.129Z,31
2019-02-28T06:34:20.179Z,30.8
2019-02-28T06:35:09.543Z,30.6
2019-02-28T06:36:06.031Z,30.4
2019-02-28T06:36:51.236Z,30.2
2019-02-28T06:37:46.979Z,29.7
2019-02-28T06:38:30.992Z,29.8
2019-02-28T06:39:22.552Z,30.6
2019-02-28T06:40:10.261Z,31.1
2019-02-28T06:41:00.311Z,31.4
2019-02-28T06:41:51.242Z,31.7
2019-02-28T06:42:43.414Z,31.9
2019-02-28T06:43:30.459Z,32.2
2019-02-28T06:44:24.166Z,32.4
2019-02-28T06:45:12.403Z,32.3
2019-02-28T06:46:00.641Z,31.8
2019-02-28T06:46:50.410Z,31.6
2019-02-28T06:47:50.042Z,31.3
2019-02-28T06:48:36.226Z,31.1
2019-02-28T06:49:22.036Z,30.8
2019-02-28T06:50:15.575Z,30.6
2019-02-28T06:51:00.734Z,30.4
2019-02-28T06:51:57.465Z,30.3
2019-02-28T06:52:41.788Z,29.9
2019-02-28T06:53:39.431Z,29.3
2019-02-28T06:54:21.476Z,30.3
2019-02-28T06:55:16.056Z,30.8
2019-02-28T06:56:02.171Z,31.2
2019-02-28T06:56:56.298Z,31.5
2019-02-28T06:57:42.634Z,31.8
2019-02-28T06:58:38.574Z,32.1
2019-02-28T06:59:21.565Z,32.4
2019-02-28T07:00:17.560Z,32.6
2019-02-28T07:01:02.298Z,32.1
2019-02-28T07:01:59.740Z,31.9
2019-02-28T07:02:41.432Z,31.5
2019-02-28T07:03:32.144Z,31.4
2019-02-28T07:06:05.605Z,30.8
2019-02-28T07:06:48.926Z,30.4
2019-02-28T07:07:38.353Z,30.3
2019-02-28T07:08:39.062Z,30.1
2019-02-28T07:09:19.598Z,29.5
2019-02-28T07:10:18.247Z,30.3
2019-02-28T07:10:59.507Z,31.4
2019-02-28T07:11:54.705Z,32.2
2019-02-28T07:12:42.235Z,32.1
2019-02-28T07:13:28.827Z,32.1
2019-02-28T07:14:24.223Z,32.1
2019-02-28T07:15:10.022Z,32
2019-02-28T07:16:09.270Z,31.9
2019-02-28T07:16:49.342Z,31.7
2019-02-28T07:17:42.578Z,31.5
2019-02-28T07:18:30.424Z,31.3
2019-02-28T07:19:19.737Z,31.1
2019-02-28T07:20:15.532Z,30.8
2019-02-28T07:21:00.419Z,30.6
2019-02-28T07:21:54.467Z,29.9
2019-02-28T07:22:42.036Z,29.4
2019-02-28T07:23:39.281Z,29.1
2019-02-28T07:24:20.369Z,28.8
2019-02-28T07:25:17.251Z,28.6
2019-02-28T07:26:01.550Z,28.4
2019-02-28T07:26:55.571Z,28.2
2019-02-28T07:27:39.996Z,28
2019-02-28T07:28:37.640Z,27.9
2019-02-28T07:29:22.511Z,27.7
2019-02-28T07:30:11.054Z,27.6
2019-02-28T07:31:01.534Z,27.4
2019-02-28T07:31:50.894Z,27.1
2019-02-28T07:32:45.244Z,27.2
2019-02-28T07:33:31.021Z,28.5
2019-02-28T07:34:30.438Z,29.5
2019-02-28T07:35:11.153Z,30.8
2019-02-28T07:36:00.926Z,31.6
2019-02-28T07:36:55.247Z,31.8
2019-02-28T07:37:41.594Z,30.8
2019-02-28T07:38:37.821Z,30.3
2019-02-28T07:39:21.403Z,29.9
2019-02-28T07:40:18.403Z,29.6
2019-02-28T07:41:01.166Z,29.3
2019-02-28T07:41:51.683Z,29.1
2019-02-28T07:42:48.418Z,28.9
2019-02-28T07:43:31.331Z,28.7
2019-02-28T07:44:28.481Z,28.6
2019-02-28T07:45:14.103Z,28.4
2019-02-28T07:46:04.418Z,28.2
2019-02-28T07:46:52.480Z,27.6
2019-02-28T07:47:41.929Z,27.4
2019-02-28T07:48:39.455Z,27.1
2019-02-28T07:49:21.330Z,26.9
2019-02-28T07:50:17.973Z,26.8
2019-02-28T07:51:03.680Z,26.6
2019-02-28T07:51:51.621Z,26.4
2019-02-28T07:52:44.175Z,26.3
2019-02-28T07:53:32.240Z,27.7
2019-02-28T07:54:28.257Z,28.9
2019-02-28T07:55:11.003Z,30.3
2019-02-28T07:56:09.470Z,31.1
2019-02-28T07:56:54.307Z,31.6
2019-02-28T07:57:42.662Z,30.9
2019-02-28T07:58:40.790Z,30.6
2019-02-28T07:59:22.229Z,30.3
2019-02-28T08:00:19.770Z,30
2019-02-28T08:01:04.349Z,29.8
2019-02-28T08:01:54.902Z,29.6
2019-02-28T08:02:50.029Z,29.3
2019-02-28T08:03:32.714Z,29.1
2019-02-28T08:04:29.457Z,28.9
2019-02-28T08:05:13.257Z,28.7
2019-02-28T08:06:09.967Z,28.6
2019-02-28T08:06:55.356Z,28.3
2019-02-28T08:07:50.161Z,28.1
2019-02-28T08:08:37.081Z,27.9
2019-02-28T08:09:23.092Z,27.7
2019-02-28T08:10:20.189Z,27.6
2019-02-28T08:11:03.498Z,29
2019-02-28T08:12:00.754Z,29.9
2019-02-28T08:12:43.889Z,31.2
2019-02-28T08:13:39.694Z,32
2019-02-28T08:14:23.824Z,31.1
2019-02-28T08:15:20.916Z,30.7
2019-02-28T08:16:09.561Z,30.3
2019-02-28T08:16:53.601Z,30.1
2019-02-28T08:17:52.593Z,29.8
2019-02-28T08:18:36.259Z,29.6
2019-02-28T08:19:31.324Z,29.4
2019-02-28T08:20:14.196Z,29.1
2019-02-28T08:21:10.005Z,29
2019-02-28T08:22:00.431Z,28.8
2019-02-28T08:22:43.794Z,28.6
2019-02-28T08:23:40.789Z,28.4
2019-02-28T08:24:26.379Z,28.2
2019-02-28T08:25:17.490Z,27.9
2019-02-28T08:26:03.191Z,28.3
2019-02-28T08:27:00.723Z,29.4
2019-02-28T08:27:43.848Z,30.6
2019-02-28T08:28:43.534Z,31.5
2019-02-28T08:29:23.703Z,32.2
2019-02-28T08:30:21.395Z,32.2
2019-02-28T08:31:06.275Z,32.3
2019-02-28T08:31:54.319Z,32.2
2019-02-28T08:32:54.198Z,32.1
2019-02-28T08:33:35.333Z,31.9
2019-02-28T08:34:32.140Z,31.8
2019-02-28T08:35:14.977Z,31.4
2019-02-28T08:36:14.085Z,31.3
2019-02-28T08:36:57.588Z,30.9
2019-02-28T08:37:45.018Z,30.8
2019-02-28T08:38:45.152Z,30.5
2019-02-28T08:39:26.611Z,30.2
2019-02-28T08:40:21.398Z,30
2019-02-28T08:41:08.368Z,29.7
2019-02-28T08:42:06.765Z,29.4
2019-02-28T08:42:51.723Z,29.2
2019-02-28T08:43:37.802Z,29
2019-02-28T08:44:32.340Z,28.8
2019-02-28T08:45:18.068Z,28.5
2019-02-28T08:46:18.550Z,28.3
2019-02-28T08:46:57.645Z,28.1
2019-02-28T08:47:45.522Z,27.9
2019-02-28T08:48:44.397Z,27.7
2019-02-28T08:49:25.650Z,27.4
2019-02-28T08:50:25.545Z,27.3
2019-02-28T08:51:06.909Z,27
2019-02-28T08:51:55.744Z,27.3
2019-02-28T08:52:53.405Z,28.5
2019-02-28T08:53:36.112Z,29.7
2019-02-28T08:54:33.648Z,30.6
2019-02-28T08:55:29.410Z,31.8
2019-02-28T08:56:06.115Z,32.1
2019-02-28T08:57:00.280Z,31.7
2019-02-28T08:58:06.814Z,31.4
2019-02-28T08:58:40.253Z,31.1
2019-02-28T08:59:32.839Z,30.9
2019-02-28T09:00:15.984Z,30.7
2019-02-28T09:01:11.532Z,30.5
2019-02-28T09:01:56.657Z,30.3
2019-02-28T09:02:53.800Z,30
2019-02-28T09:03:38.077Z,29.8
2019-02-28T09:04:27.080Z,29.6
2019-02-28T09:05:16.940Z,29.3
2019-02-28T09:06:15.809Z,29.1
2019-02-28T09:06:56.726Z,28.8
2019-02-28T09:07:54.029Z,28.6
2019-02-28T09:08:36.403Z,28.4
2019-02-28T09:09:27.454Z,28.2
2019-02-28T09:10:22.361Z,28
2019-02-28T09:11:07.041Z,27.8
2019-02-28T09:12:05.715Z,27.4
2019-02-28T09:12:47.911Z,28.4
2019-02-28T09:13:43.629Z,29.4
2019-02-28T09:14:28.431Z,30.7
2019-02-28T09:15:18.136Z,31.7
2019-02-28T09:16:13.208Z,31.9
2019-02-28T09:16:57.671Z,31.1
2019-02-28T09:17:47.764Z,30.7
2019-02-28T09:18:38.151Z,30.3
2019-02-28T09:19:27.816Z,30.1
2019-02-28T09:20:19.830Z,29.8
2019-02-28T09:21:08.250Z,29.6
2019-02-28T09:22:03.117Z,29.4
2019-02-28T09:22:47.820Z,29.1
2019-02-28T09:23:44.796Z,28.9
2019-02-28T09:24:30.426Z,28.8
2019-02-28T09:25:26.782Z,28.5
2019-02-28T09:26:09.461Z,28.3
2019-02-28T09:26:58.362Z,28.1
2019-02-28T09:27:49.979Z,27.9
2019-02-28T09:28:38.487Z,27.4
2019-02-28T09:29:32.482Z,28.6
2019-02-28T09:30:19.127Z,30
2019-02-28T09:31:15.655Z,31.1
2019-02-28T09:32:00.837Z,32.3
2019-02-28T09:32:54.687Z,32.4
2019-02-28T09:33:39.397Z,32.6
2019-02-28T09:34:32.122Z,32.6
2019-02-28T09:35:25.122Z,32.5
2019-02-28T09:36:08.583Z,32.3
2019-02-28T09:37:06.552Z,32.1
2019-02-28T09:37:49.112Z,31.9
2019-02-28T09:38:42.224Z,31.6
2019-02-28T09:39:30.319Z,31.4
2019-02-28T09:40:19.884Z,31.1
2019-02-28T09:41:14.792Z,30.9
2019-02-28T09:41:59.387Z,30.6
2019-02-28T09:42:57.836Z,30.3
2019-02-28T09:43:38.977Z,30.1
2019-02-28T09:44:34.193Z,29.8
2019-02-28T09:45:19.635Z,29.5
2019-02-28T09:46:19.774Z,29.3
2019-02-28T09:47:02.089Z,29.1
2019-02-28T09:47:49.774Z,28.8
2019-02-28T09:48:47.164Z,28.6
2019-02-28T09:49:29.379Z,28.3
2019-02-28T09:50:26.764Z,28.2
2019-02-28T09:51:09.443Z,27.9
2019-02-28T09:52:03.139Z,27.8
2019-02-28T09:52:52.336Z,27.5
2019-02-28T09:53:40.584Z,27.4
2019-02-28T09:54:34.521Z,27.1
2019-02-28T09:55:20.057Z,28.4
2019-02-28T09:56:17.023Z,29.5
2019-02-28T09:57:02.808Z,30.8
2019-02-28T09:58:00.000Z,31.8
2019-02-28T09:58:40.836Z,32.2
2019-02-28T09:59:30.616Z,31.7
2019-02-28T10:00:23.147Z,31.4
2019-02-28T10:01:11.051Z,31.1
2019-02-28T10:02:18.316Z,30.8
2019-02-28T10:02:57.137Z,30.5
2019-02-28T10:03:42.836Z,30.3
2019-02-28T10:04:37.360Z,30.1
2019-02-28T10:07:04.345Z,29.4
2019-02-28T10:07:48.568Z,29.2
2019-02-28T10:08:45.336Z,28.9
2019-02-28T10:09:28.840Z,28.7
2019-02-28T10:10:28.482Z,28.5
2019-02-28T10:11:31.133Z,28.3
2019-02-28T10:12:52.858Z,27.9
2019-02-28T10:13:40.750Z,29.4
2019-02-28T10:14:37.049Z,30.6
2019-02-28T10:15:19.939Z,31.9
2019-02-28T10:16:08.517Z,31.6
2019-02-28T10:17:03.295Z,30.8
2019-02-28T10:17:51.385Z,30.3
2019-02-28T10:18:46.380Z,29.9
2019-02-28T10:19:31.500Z,29.6
2019-02-28T10:20:29.000Z,29.4
2019-02-28T10:21:12.372Z,29.1
2019-02-28T10:22:02.417Z,28.9
2019-02-28T10:22:56.122Z,28.7
2019-02-28T10:23:39.585Z,28.5
2019-02-28T10:24:38.179Z,28.4
2019-02-28T10:25:20.139Z,27.9
2019-02-28T10:26:10.204Z,28.3
2019-02-28T10:27:04.512Z,29.7
2019-02-28T10:27:50.386Z,31.1
2019-02-28T10:28:40.454Z,31.6
2019-02-28T10:29:30.462Z,31.8
2019-02-28T10:30:39.259Z,31.9
2019-02-28T10:31:10.537Z,32.1
2019-02-28T10:32:00.307Z,32.3
2019-02-28T10:32:53.952Z,32.5
2019-02-28T10:33:40.449Z,32.8
2019-02-28T10:34:38.832Z,33
2019-02-28T10:35:22.394Z,32.5
2019-02-28T10:36:17.757Z,32.2
2019-02-28T10:37:00.670Z,31.9
2019-02-28T10:37:51.014Z,31.6
2019-02-28T10:38:43.496Z,31.3
2019-02-28T10:39:30.896Z,31.1
2019-02-28T10:40:27.616Z,30.9
2019-02-28T10:41:11.016Z,30.7
2019-02-28T10:42:08.039Z,30.5
2019-02-28T10:42:53.631Z,30.3
2019-02-28T10:43:41.701Z,30.1
2019-02-28T10:44:38.351Z,29.7
2019-02-28T10:45:20.958Z,30.2
2019-02-28T10:46:20.009Z,31.4
2019-02-28T10:47:04.845Z,31.6
2019-02-28T10:47:51.701Z,31.3
2019-02-28T10:48:59.349Z,31
2019-02-28T10:49:35.271Z,30.7
2019-02-28T10:50:21.845Z,30.5
2019-02-28T10:51:23.963Z,30.3
2019-02-28T10:52:01.131Z,30
2019-02-28T10:52:52.109Z,29.9
2019-02-28T10:53:48.050Z,29.7
2019-02-28T10:54:32.435Z,29.4
2019-02-28T10:55:28.354Z,29.3
2019-02-28T10:56:12.045Z,28.7
2019-02-28T10:57:07.801Z,29.8
2019-02-28T10:57:52.343Z,31.3
2019-02-28T10:58:41.876Z,31.9
2019-02-28T10:59:35.187Z,31.3
2019-02-28T11:00:23.778Z,30.7
2019-02-28T11:01:18.855Z,30.4
2019-02-28T11:02:02.960Z,30
2019-02-28T11:03:01.627Z,29.8
2019-02-28T11:03:42.903Z,29.5
2019-02-28T11:04:42.670Z,29.3
2019-02-28T11:05:31.292Z,29.1
2019-02-28T11:06:13.337Z,28.9
2019-02-28T11:07:10.760Z,28.8
2019-02-28T11:07:55.470Z,28.1
2019-02-28T11:08:48.770Z,29.3
2019-02-28T11:09:35.885Z,30.8
2019-02-28T11:10:22.969Z,31.9
2019-02-28T11:11:19.744Z,31.3
2019-02-28T11:12:03.077Z,30.8
2019-02-28T11:12:59.337Z,30.6
2019-02-28T11:13:42.892Z,30.2
2019-02-28T11:14:39.861Z,30
2019-02-28T11:15:24.780Z,29.7
2019-02-28T11:16:13.634Z,29.6
2019-02-28T11:17:19.180Z,29.4
2019-02-28T11:17:54.759Z,29.1
2019-02-28T11:18:48.909Z,28.9
2019-02-28T11:19:33.369Z,28.8
2019-02-28T11:20:38.077Z,28.2
2019-02-28T11:21:12.858Z,29.9
2019-02-28T11:22:11.014Z,30.9
2019-02-28T11:22:54.065Z,31.4
2019-02-28T11:23:46.468Z,31.7
2019-02-28T11:24:37.526Z,32
2019-02-28T11:25:23.209Z,32.2
2019-02-28T11:26:20.698Z,32.4
2019-02-28T11:27:05.158Z,32.8
2019-02-28T11:27:57.212Z,33.1
2019-02-28T11:28:44.465Z,32.6
2019-02-28T11:29:38.844Z,32.3
2019-02-28T11:30:23.537Z,32
2019-02-28T11:31:22.062Z,31.7
2019-02-28T11:32:07.495Z,31.4
2019-02-28T11:32:54.508Z,31.2
2019-02-28T11:33:50.088Z,30.9
2019-02-28T11:34:35.233Z,30.8
2019-02-28T11:35:30.700Z,30.6
2019-02-28T11:36:16.621Z,30.4
2019-02-28T11:37:13.755Z,30.3
2019-02-28T11:37:55.940Z,30.1
2019-02-28T11:38:45.173Z,29.6
2019-02-28T11:39:43.213Z,30.1
2019-02-28T11:40:25.575Z,31.8
2019-02-28T11:41:22.163Z,31.7
2019-02-28T11:42:06.988Z,31.3
2019-02-28T11:42:55.748Z,31.1
2019-02-28T11:43:48.103Z,30.8
2019-02-28T11:44:35.357Z,30.6
2019-02-28T11:45:34.918Z,30.4
2019-02-28T11:46:15.390Z,30.1
2019-02-28T11:47:04.768Z,29.9
2019-02-28T11:47:55.593Z,29.8
2019-02-28T11:48:46.157Z,29.6
2019-02-28T11:49:39.149Z,29.4
2019-02-28T11:50:25.646Z,28.7
2019-02-28T11:51:21.648Z,29.8
2019-02-28T11:52:06.337Z,31.3
2019-02-28T11:52:54.810Z,31.9
2019-02-28T11:53:50.214Z,31.3
2019-02-28T11:54:35.649Z,30.8
2019-02-28T11:55:33.422Z,30.5
2019-02-28T11:56:15.530Z,30.2
2019-02-28T11:57:15.222Z,30
2019-02-28T11:57:55.909Z,29.8
2019-02-28T11:58:52.641Z,29.6
2019-02-28T11:59:36.031Z,29.3
2019-02-28T12:00:26.655Z,29.2
2019-02-28T12:01:20.259Z,28.9
2019-02-28T12:02:06.487Z,28.3
2019-02-28T12:03:12.696Z,29.3
2019-02-28T12:03:46.764Z,31.3
2019-02-28T12:04:42.134Z,31.5
2019-02-28T12:07:07.329Z,32.1
2019-02-28T12:07:48.912Z,32.5
2019-02-28T12:08:44.835Z,32.7
2019-02-28T12:09:30.394Z,33.1
2019-02-28T12:10:19.046Z,32.4
2019-02-28T12:11:12.526Z,32.3
2019-02-28T12:11:59.421Z,32.1
2019-02-28T12:12:57.359Z,31.8
2019-02-28T12:13:39.359Z,31.6
2019-02-28T12:14:35.073Z,31.4
2019-02-28T12:15:18.601Z,31.2
2019-02-28T12:16:09.443Z,31
2019-02-28T12:17:03.698Z,30.9
2019-02-28T12:17:49.593Z,30.4
2019-02-28T12:18:46.343Z,30.2
2019-02-28T12:19:30.643Z,31.8
2019-02-28T12:20:25.753Z,31.9
2019-02-28T12:21:14.846Z,31.6
2019-02-28T12:22:01.671Z,31.4
2019-02-28T12:22:58.815Z,31.3
2019-02-28T12:23:38.886Z,31
2019-02-28T12:24:35.728Z,30.9
2019-02-28T12:25:20.378Z,30.6
2019-02-28T12:26:09.915Z,30.5
2019-02-28T12:27:05.147Z,30.3
2019-02-28T12:27:50.238Z,30.1
2019-02-28T12:28:45.903Z,29.9
2019-02-28T12:29:30.748Z,29.4
2019-02-28T12:30:28.260Z,30.6
2019-02-28T12:31:11.144Z,31.9
2019-02-28T12:31:59.953Z,31.4
2019-02-28T12:32:56.988Z,31.2
2019-02-28T12:33:39.875Z,30.9
2019-02-28T12:34:35.090Z,30.7
2019-02-28T12:35:20.210Z,30.4
2019-02-28T12:36:16.715Z,30.3
2019-02-28T12:37:02.607Z,30
2019-02-28T12:37:50.395Z,29.8
2019-02-28T12:38:41.285Z,29.6
2019-02-28T12:39:38.527Z,29.1
2019-02-28T12:40:21.611Z,29.9
2019-02-28T12:41:10.329Z,31.1
2019-02-28T12:42:06.886Z,31.6
2019-02-28T12:42:51.310Z,31.9
2019-02-28T12:43:45.199Z,32.1
2019-02-28T12:44:31.107Z,32.3
2019-02-28T12:45:27.977Z,32.6
2019-02-28T12:46:10.722Z,32.9
2019-02-28T12:47:06.404Z,32.9
2019-02-28T12:47:53.562Z,32.3
2019-02-28T12:48:41.142Z,32.1
2019-02-28T12:49:36.879Z,31.8
2019-02-28T12:50:21.259Z,31.5
2019-02-28T12:51:16.432Z,31.3
2019-02-28T12:52:01.332Z,31.1
2019-02-28T12:52:57.404Z,30.9
2019-02-28T12:53:43.367Z,30.7
2019-02-28T12:54:40.319Z,30.5
2019-02-28T12:55:21.864Z,30.3
2019-02-28T12:56:17.684Z,30.3
2019-02-28T12:57:02.572Z,30.1
2019-02-28T12:58:00.628Z,29.4
2019-02-28T12:58:51.923Z,30.6
2019-02-28T12:59:34.699Z,31.9
2019-02-28T13:00:29.598Z,31.5
2019-02-28T13:01:12.981Z,31.3
2019-02-28T13:02:09.132Z,31
2019-02-28T13:02:56.119Z,30.8
2019-02-28T13:03:42.473Z,30.6
2019-02-28T13:04:39.335Z,30.4
2019-02-28T13:05:26.453Z,30.2
2019-02-28T13:06:12.691Z,30
2019-02-28T13:07:09.510Z,29.8
2019-02-28T13:07:55.133Z,29.6
2019-02-28T13:08:48.281Z,29.5
2019-02-28T13:09:34.576Z,28.9
2019-02-28T13:10:33.091Z,30.2
2019-02-28T13:11:14.363Z,31.8
2019-02-28T13:12:03.131Z,31.6
2019-02-28T13:13:13.415Z,31.1
2019-02-28T13:13:43.226Z,30.8
2019-02-28T13:14:36.738Z,30.6
2019-02-28T13:15:23.880Z,30.3
2019-02-28T13:16:13.870Z,30.1
2019-02-28T13:17:07.900Z,29.9
2019-02-28T13:17:52.492Z,29.7
2019-02-28T13:18:50.525Z,29.5
2019-02-28T13:19:33.903Z,29.3
2019-02-28T13:20:22.937Z,29.1
2019-02-28T13:21:21.674Z,28.8
2019-02-28T13:22:04.030Z,29.3
2019-02-28T13:23:01.745Z,30.6
2019-02-28T13:23:43.472Z,31.8
2019-02-28T13:24:34.492Z,31.4
2019-02-28T13:25:32.406Z,31
2019-02-28T13:26:14.234Z,30.6
2019-02-28T13:27:11.635Z,30.4
2019-02-28T13:27:57.830Z,30.2
2019-02-28T13:28:44.793Z,29.9
2019-02-28T13:29:42.282Z,29.8
2019-02-28T13:30:24.056Z,29.6
2019-02-28T13:31:14.760Z,29.4
2019-02-28T13:32:11.933Z,29.3
2019-02-28T13:32:54.796Z,29.1
2019-02-28T13:33:54.079Z,28.4
2019-02-28T13:34:40.491Z,29.9
2019-02-28T13:35:24.779Z,31.3
2019-02-28T13:36:24.761Z,31.6
2019-02-28T13:37:12.738Z,31.9
2019-02-28T13:37:55.819Z,32.2
2019-02-28T13:38:45.225Z,32.4
2019-02-28T13:39:42.609Z,32.6
2019-02-28T13:40:27.501Z,33
2019-02-28T13:41:29.559Z,32.4
2019-02-28T13:42:13.626Z,32.2
2019-02-28T13:42:55.774Z,31.9
2019-02-28T13:43:46.005Z,31.7
2019-02-28T13:44:44.599Z,31.5
2019-02-28T13:45:34.031Z,31.3
2019-02-28T13:46:18.834Z,31.1
2019-02-28T13:47:13.947Z,30.9
2019-02-28T13:47:57.866Z,30.7
2019-02-28T13:48:45.818Z,30.6
2019-02-28T13:49:39.421Z,30.4
2019-02-28T13:50:38.575Z,30.1
2019-02-28T13:51:19.369Z,30
2019-02-28T13:52:08.005Z,31.2
2019-02-28T13:53:26.827Z,31.9
2019-02-28T13:53:45.652Z,31.2
2019-02-28T13:54:45.681Z,31.1
2019-02-28T13:55:30.177Z,30.8
2019-02-28T13:56:17.981Z,30.6
2019-02-28T13:57:14.606Z,30.4
2019-02-28T13:57:57.200Z,30.2
2019-02-28T13:58:46.445Z,30
2019-02-28T13:59:41.780Z,29.8
2019-02-28T14:00:27.064Z,29.6
2019-02-28T14:01:20.890Z,29.5
2019-02-28T14:02:06.777Z,29.3
2019-02-28T14:02:56.698Z,29.2
2019-02-28T14:03:54.255Z,28.6
2019-02-28T14:04:37.289Z,30
2019-02-28T14:05:26.788Z,31.3
2019-02-28T14:07:58.072Z,32.2
2019-02-28T14:08:55.405Z,32.5
2019-02-28T14:09:39.217Z,32.8
2019-02-28T14:10:37.192Z,33.1
2019-02-28T14:11:20.677Z,32.4
2019-02-28T14:12:09.194Z,32.2
2019-02-28T14:13:06.504Z,31.9
2019-02-28T14:13:48.987Z,31.7
2019-02-28T14:14:46.437Z,31.5
2019-02-28T14:15:32.042Z,31.3
2019-02-28T14:16:19.374Z,31.1
2019-02-28T14:17:12.007Z,30.9
2019-02-28T14:17:59.094Z,30.8
2019-02-28T14:18:57.653Z,30.6
2019-02-28T14:19:39.240Z,30.4
2019-02-28T14:20:35.864Z,29.7
2019-02-28T14:21:19.627Z,31.1
2019-02-28T14:22:14.824Z,32
2019-02-28T14:22:59.232Z,31.4
2019-02-28T14:23:52.361Z,31.3
2019-02-28T14:24:42.279Z,31.1
2019-02-28T14:25:29.950Z,30.8